sensor_id;sensor_type;location;lat;lon;timestamp;P1;durP1;ratioP1;P2;durP2;ratioP2
18251;SDS011;26917;52.328;20.878;2022-09-28T00:21:36;59.70;;;29.35;;
18251;SDS011;26917;52.328;20.878;2022-09-28T00:25:43;64.75;;;28.75;;
18251;SDS011;26917;52.328;20.878;2022-09-28T00:28:12;60.72;;;28.95;;
18251;SDS011;26917;52.328;20.878;2022-09-28T00:30:44;63.15;;;29.48;;
18251;SDS011;26917;52.328;20.878;2022-09-28T00:33:15;87.60;;;29.67;;
18251;SDS011;26917;52.328;20.878;2022-09-28T00:35:56;53.30;;;17.10;;
18251;SDS011;26917;52.328;20.878;2022-09-28T00:38:32;25.80;;;13.32;;
18251;SDS011;26917;52.328;20.878;2022-09-28T00:41:06;26.48;;;10.88;;
18251;SDS011;26917;52.328;20.878;2022-09-28T00:43:37;23.58;;;10.05;;
18251;SDS011;26917;52.328;20.878;2022-09-28T00:46:25;20.65;;;8.05;;
18251;SDS011;26917;52.328;20.878;2022-09-28T00:49:09;14.45;;;7.75;;
18251;SDS011;26917;52.328;20.878;2022-09-28T00:52:08;12.88;;;6.80;;
18251;SDS011;26917;52.328;20.878;2022-09-28T00:54:46;17.30;;;6.47;;
18251;SDS011;26917;52.328;20.878;2022-09-28T00:57:19;15.23;;;6.53;;
18251;SDS011;26917;52.328;20.878;2022-09-28T01:00:23;15.75;;;7.20;;
18251;SDS011;26917;52.328;20.878;2022-09-28T01:02:55;18.92;;;6.68;;
18251;SDS011;26917;52.328;20.878;2022-09-28T01:05:27;11.93;;;6.43;;
18251;SDS011;26917;52.328;20.878;2022-09-28T01:07:57;15.57;;;6.38;;
18251;SDS011;26917;52.328;20.878;2022-09-28T01:13:11;28.02;;;6.50;;
18251;SDS011;26917;52.328;20.878;2022-09-28T01:15:46;22.05;;;5.65;;
18251;SDS011;26917;52.328;20.878;2022-09-28T01:18:27;13.73;;;5.93;;
18251;SDS011;26917;52.328;20.878;2022-09-28T01:21:04;18.80;;;5.60;;
18251;SDS011;26917;52.328;20.878;2022-09-28T01:23:42;19.92;;;5.47;;
18251;SDS011;26917;52.328;20.878;2022-09-28T01:26:37;20.70;;;5.63;;
18251;SDS011;26917;52.328;20.878;2022-09-28T01:29:27;17.00;;;4.68;;
18251;SDS011;26917;52.328;20.878;2022-09-28T01:32:08;12.90;;;4.38;;
18251;SDS011;26917;52.328;20.878;2022-09-28T01:34:42;9.60;;;4.53;;
18251;SDS011;26917;52.328;20.878;2022-09-28T01:37:17;17.75;;;4.60;;
18251;SDS011;26917;52.328;20.878;2022-09-28T01:39:54;10.32;;;4.57;;
18251;SDS011;26917;52.328;20.878;2022-09-28T01:45:16;22.50;;;5.18;;
18251;SDS011;26917;52.328;20.878;2022-09-28T01:47:49;11.25;;;4.40;;
18251;SDS011;26917;52.328;20.878;2022-09-28T01:50:21;12.50;;;4.88;;
18251;SDS011;26917;52.328;20.878;2022-09-28T01:52:53;12.50;;;4.03;;
18251;SDS011;26917;52.328;20.878;2022-09-28T01:55:27;1.20;;;1.20;;
18251;SDS011;26917;52.328;20.878;2022-09-28T01:58:58;1.00;;;1.00;;
18251;SDS011;26917;52.328;20.878;2022-09-28T02:01:35;1.05;;;1.05;;
18251;SDS011;26917;52.328;20.878;2022-09-28T02:04:09;1.13;;;1.13;;
18251;SDS011;26917;52.328;20.878;2022-09-28T02:06:49;0.90;;;0.90;;
18251;SDS011;26917;52.328;20.878;2022-09-28T02:09:27;1.20;;;1.20;;
18251;SDS011;26917;52.328;20.878;2022-09-28T02:12:18;2.17;;;2.08;;
18251;SDS011;26917;52.328;20.878;2022-09-28T02:24:27;1.60;;;1.60;;
18251;SDS011;26917;52.328;20.878;2022-09-28T02:28:49;1.05;;;1.05;;
18251;SDS011;26917;52.328;20.878;2022-09-28T02:31:18;0.82;;;0.82;;
18251;SDS011;26917;52.328;20.878;2022-09-28T02:49:15;0.82;;;0.82;;
18251;SDS011;26917;52.328;20.878;2022-09-28T03:41:31;3.13;;;1.40;;
18251;SDS011;26917;52.328;20.878;2022-09-28T03:44:32;1.25;;;1.25;;
18251;SDS011;26917;52.328;20.878;2022-09-28T03:47:02;1.73;;;1.63;;
18251;SDS011;26917;52.328;20.878;2022-09-28T03:49:31;2.00;;;1.90;;
18251;SDS011;26917;52.328;20.878;2022-09-28T03:52:00;1.90;;;1.73;;
18251;SDS011;26917;52.328;20.878;2022-09-28T03:54:45;2.67;;;2.47;;
18251;SDS011;26917;52.328;20.878;2022-09-28T03:57:17;1.70;;;1.60;;
18251;SDS011;26917;52.328;20.878;2022-09-28T03:59:47;2.33;;;2.17;;
18251;SDS011;26917;52.328;20.878;2022-09-28T04:02:18;3.13;;;2.92;;
18251;SDS011;26917;52.328;20.878;2022-09-28T04:05:16;3.40;;;3.03;;
18251;SDS011;26917;52.328;20.878;2022-09-28T04:07:46;3.70;;;3.40;;
18251;SDS011;26917;52.328;20.878;2022-09-28T04:10:15;4.60;;;2.95;;
18251;SDS011;26917;52.328;20.878;2022-09-28T04:12:46;4.38;;;3.25;;
18251;SDS011;26917;52.328;20.878;2022-09-28T04:15:15;3.05;;;2.95;;
18251;SDS011;26917;52.328;20.878;2022-09-28T04:17:43;3.22;;;3.03;;
18251;SDS011;26917;52.328;20.878;2022-09-28T04:20:25;2.47;;;2.38;;
18251;SDS011;26917;52.328;20.878;2022-09-28T04:23:06;4.07;;;3.50;;
18251;SDS011;26917;52.328;20.878;2022-09-28T04:25:35;2.65;;;2.55;;
18251;SDS011;26917;52.328;20.878;2022-09-28T04:28:08;2.92;;;2.72;;
18251;SDS011;26917;52.328;20.878;2022-09-28T04:31:19;4.75;;;2.78;;
18251;SDS011;26917;52.328;20.878;2022-09-28T04:36:45;2.22;;;2.13;;
18251;SDS011;26917;52.328;20.878;2022-09-28T04:39:25;2.88;;;2.67;;
18251;SDS011;26917;52.328;20.878;2022-09-28T04:41:55;3.55;;;3.30;;
18251;SDS011;26917;52.328;20.878;2022-09-28T04:44:27;3.83;;;3.55;;
18251;SDS011;26917;52.328;20.878;2022-09-28T04:47:00;4.38;;;3.60;;
18251;SDS011;26917;52.328;20.878;2022-09-28T04:53:25;5.38;;;3.60;;
18251;SDS011;26917;52.328;20.878;2022-09-28T04:56:36;3.97;;;3.78;;
18251;SDS011;26917;52.328;20.878;2022-09-28T04:59:12;7.47;;;4.30;;
18251;SDS011;26917;52.328;20.878;2022-09-28T05:09:14;4.20;;;3.88;;
18251;SDS011;26917;52.328;20.878;2022-09-28T05:12:38;4.07;;;3.78;;
18251;SDS011;26917;52.328;20.878;2022-09-28T05:15:28;4.68;;;3.63;;
18251;SDS011;26917;52.328;20.878;2022-09-28T05:18:12;2.80;;;2.60;;
18251;SDS011;26917;52.328;20.878;2022-09-28T05:21:02;3.42;;;3.20;;
18251;SDS011;26917;52.328;20.878;2022-09-28T05:23:36;6.80;;;4.95;;
18251;SDS011;26917;52.328;20.878;2022-09-28T05:26:07;5.60;;;4.07;;
18251;SDS011;26917;52.328;20.878;2022-09-28T05:28:36;2.92;;;2.78;;
18251;SDS011;26917;52.328;20.878;2022-09-28T05:31:28;5.88;;;4.20;;
18251;SDS011;26917;52.328;20.878;2022-09-28T05:34:37;5.43;;;3.60;;
18251;SDS011;26917;52.328;20.878;2022-09-28T05:37:05;6.85;;;4.50;;
18251;SDS011;26917;52.328;20.878;2022-09-28T05:42:34;6.07;;;4.18;;
18251;SDS011;26917;52.328;20.878;2022-09-28T05:50:50;2.65;;;2.55;;
18251;SDS011;26917;52.328;20.878;2022-09-28T05:53:19;3.90;;;3.60;;
18251;SDS011;26917;52.328;20.878;2022-09-28T05:55:48;4.57;;;3.78;;
18251;SDS011;26917;52.328;20.878;2022-09-28T05:58:18;6.03;;;3.83;;
18251;SDS011;26917;52.328;20.878;2022-09-28T06:00:52;4.70;;;4.30;;
18251;SDS011;26917;52.328;20.878;2022-09-28T06:03:34;4.97;;;4.35;;
18251;SDS011;26917;52.328;20.878;2022-09-28T06:06:22;4.25;;;3.10;;
18251;SDS011;26917;52.328;20.878;2022-09-28T06:08:51;2.20;;;1.90;;
18251;SDS011;26917;52.328;20.878;2022-09-28T06:11:38;2.67;;;2.53;;
18251;SDS011;26917;52.328;20.878;2022-09-28T06:14:20;4.90;;;4.53;;
18251;SDS011;26917;52.328;20.878;2022-09-28T06:16:49;3.15;;;2.95;;
18251;SDS011;26917;52.328;20.878;2022-09-28T06:19:17;5.97;;;3.22;;
18251;SDS011;26917;52.328;20.878;2022-09-28T06:22:04;4.03;;;3.38;;
18251;SDS011;26917;52.328;20.878;2022-09-28T06:24:40;3.53;;;3.22;;
18251;SDS011;26917;52.328;20.878;2022-09-28T06:27:10;4.43;;;3.50;;
18251;SDS011;26917;52.328;20.878;2022-09-28T06:29:43;2.83;;;2.72;;
18251;SDS011;26917;52.328;20.878;2022-09-28T06:32:25;4.30;;;3.92;;
18251;SDS011;26917;52.328;20.878;2022-09-28T06:35:00;3.08;;;2.90;;
18251;SDS011;26917;52.328;20.878;2022-09-28T06:37:46;5.45;;;4.78;;
18251;SDS011;26917;52.328;20.878;2022-09-28T06:40:15;5.10;;;3.22;;
18251;SDS011;26917;52.328;20.878;2022-09-28T06:42:44;3.05;;;2.85;;
18251;SDS011;26917;52.328;20.878;2022-09-28T06:45:49;4.00;;;3.67;;
18251;SDS011;26917;52.328;20.878;2022-09-28T06:48:44;4.57;;;3.42;;
18251;SDS011;26917;52.328;20.878;2022-09-28T06:51:17;6.63;;;4.28;;
18251;SDS011;26917;52.328;20.878;2022-09-28T06:54:13;4.40;;;4.05;;
18251;SDS011;26917;52.328;20.878;2022-09-28T06:57:26;4.85;;;4.20;;
18251;SDS011;26917;52.328;20.878;2022-09-28T06:59:55;3.88;;;3.58;;
18251;SDS011;26917;52.328;20.878;2022-09-28T07:02:25;6.22;;;4.65;;
18251;SDS011;26917;52.328;20.878;2022-09-28T07:05:00;4.68;;;4.28;;
18251;SDS011;26917;52.328;20.878;2022-09-28T07:11:42;7.68;;;5.15;;
18251;SDS011;26917;52.328;20.878;2022-09-28T07:14:26;2.83;;;2.72;;
18251;SDS011;26917;52.328;20.878;2022-09-28T07:17:13;4.72;;;3.78;;
18251;SDS011;26917;52.328;20.878;2022-09-28T07:19:51;4.82;;;4.32;;
18251;SDS011;26917;52.328;20.878;2022-09-28T07:22:43;3.55;;;3.25;;
18251;SDS011;26917;52.328;20.878;2022-09-28T07:25:18;3.65;;;3.45;;
18251;SDS011;26917;52.328;20.878;2022-09-28T07:28:30;6.03;;;3.78;;
18251;SDS011;26917;52.328;20.878;2022-09-28T07:31:23;3.92;;;3.63;;
18251;SDS011;26917;52.328;20.878;2022-09-28T07:34:24;4.75;;;4.38;;
18251;SDS011;26917;52.328;20.878;2022-09-28T07:37:39;3.35;;;3.15;;
18251;SDS011;26917;52.328;20.878;2022-09-28T07:41:30;6.05;;;4.35;;
18251;SDS011;26917;52.328;20.878;2022-09-28T07:43:30;13.13;;;4.78;;
18251;SDS011;26917;52.328;20.878;2022-09-28T07:46:20;7.88;;;3.40;;
18251;SDS011;26917;52.328;20.878;2022-09-28T07:49:02;3.67;;;3.42;;
18251;SDS011;26917;52.328;20.878;2022-09-28T07:51:58;7.28;;;4.15;;
18251;SDS011;26917;52.328;20.878;2022-09-28T07:54:52;3.28;;;3.08;;
18251;SDS011;26917;52.328;20.878;2022-09-28T07:58:13;8.52;;;5.40;;
18251;SDS011;26917;52.328;20.878;2022-09-28T08:01:20;8.88;;;4.95;;
18251;SDS011;26917;52.328;20.878;2022-09-28T08:04:04;4.38;;;4.03;;
18251;SDS011;26917;52.328;20.878;2022-09-28T08:06:41;3.40;;;3.17;;
18251;SDS011;26917;52.328;20.878;2022-09-28T08:09:33;4.72;;;4.35;;
18251;SDS011;26917;52.328;20.878;2022-09-28T08:12:39;3.95;;;3.75;;
18251;SDS011;26917;52.328;20.878;2022-09-28T08:15:39;6.40;;;4.88;;
18251;SDS011;26917;52.328;20.878;2022-09-28T08:18:37;3.80;;;3.47;;
18251;SDS011;26917;52.328;20.878;2022-09-28T08:21:29;5.95;;;5.38;;
18251;SDS011;26917;52.328;20.878;2022-09-28T08:24:29;4.75;;;4.38;;
18251;SDS011;26917;52.328;20.878;2022-09-28T08:27:08;4.10;;;3.75;;
18251;SDS011;26917;52.328;20.878;2022-09-28T08:29:54;3.72;;;3.53;;
18251;SDS011;26917;52.328;20.878;2022-09-28T08:33:22;4.97;;;4.03;;
18251;SDS011;26917;52.328;20.878;2022-09-28T08:36:22;3.55;;;3.17;;
18251;SDS011;26917;52.328;20.878;2022-09-28T08:39:13;5.10;;;4.32;;
18251;SDS011;26917;52.328;20.878;2022-09-28T08:42:00;4.53;;;4.22;;
18251;SDS011;26917;52.328;20.878;2022-09-28T08:45:05;5.20;;;3.30;;
18251;SDS011;26917;52.328;20.878;2022-09-28T08:47:54;5.68;;;3.95;;
18251;SDS011;26917;52.328;20.878;2022-09-28T08:51:11;3.53;;;3.22;;
18251;SDS011;26917;52.328;20.878;2022-09-28T08:54:27;5.03;;;4.55;;
18251;SDS011;26917;52.328;20.878;2022-09-28T08:57:17;3.70;;;3.45;;
18251;SDS011;26917;52.328;20.878;2022-09-28T08:59:48;3.78;;;3.50;;
18251;SDS011;26917;52.328;20.878;2022-09-28T09:02:29;3.45;;;3.20;;
18251;SDS011;26917;52.328;20.878;2022-09-28T09:05:12;4.68;;;2.95;;
18251;SDS011;26917;52.328;20.878;2022-09-28T09:08:07;6.70;;;3.30;;
18251;SDS011;26917;52.328;20.878;2022-09-28T09:10:52;4.63;;;3.08;;
18251;SDS011;26917;52.328;20.878;2022-09-28T09:16:34;3.67;;;3.38;;
18251;SDS011;26917;52.328;20.878;2022-09-28T09:19:34;8.73;;;3.92;;
18251;SDS011;26917;52.328;20.878;2022-09-28T09:22:29;2.78;;;2.58;;
18251;SDS011;26917;52.328;20.878;2022-09-28T09:25:12;2.63;;;2.42;;
18251;SDS011;26917;52.328;20.878;2022-09-28T09:31:04;5.57;;;2.63;;
18251;SDS011;26917;52.328;20.878;2022-09-28T09:33:51;4.53;;;3.22;;
18251;SDS011;26917;52.328;20.878;2022-09-28T09:36:48;2.20;;;2.05;;
18251;SDS011;26917;52.328;20.878;2022-09-28T09:39:55;4.40;;;2.83;;
18251;SDS011;26917;52.328;20.878;2022-09-28T09:43:01;3.20;;;2.95;;
18251;SDS011;26917;52.328;20.878;2022-09-28T09:45:52;2.00;;;1.88;;
18251;SDS011;26917;52.328;20.878;2022-09-28T09:48:37;2.15;;;2.00;;
18251;SDS011;26917;52.328;20.878;2022-09-28T09:51:15;3.25;;;2.95;;
18251;SDS011;26917;52.328;20.878;2022-09-28T09:53:51;1.88;;;1.80;;
18251;SDS011;26917;52.328;20.878;2022-09-28T09:56:27;2.55;;;2.35;;
18251;SDS011;26917;52.328;20.878;2022-09-28T09:59:16;2.35;;;2.15;;
18251;SDS011;26917;52.328;20.878;2022-09-28T10:02:07;3.05;;;2.88;;
18251;SDS011;26917;52.328;20.878;2022-09-28T10:04:53;2.25;;;2.15;;
18251;SDS011;26917;52.328;20.878;2022-09-28T10:07:32;1.63;;;1.63;;
18251;SDS011;26917;52.328;20.878;2022-09-28T10:10:15;4.15;;;3.03;;
18251;SDS011;26917;52.328;20.878;2022-09-28T10:12:48;2.08;;;1.98;;
18251;SDS011;26917;52.328;20.878;2022-09-28T10:15:19;2.05;;;1.95;;
18251;SDS011;26917;52.328;20.878;2022-09-28T10:18:18;2.05;;;1.95;;
18251;SDS011;26917;52.328;20.878;2022-09-28T10:21:05;2.20;;;2.10;;
18251;SDS011;26917;52.328;20.878;2022-09-28T10:23:58;1.42;;;1.33;;
18251;SDS011;26917;52.328;20.878;2022-09-28T10:26:31;1.80;;;1.70;;
18251;SDS011;26917;52.328;20.878;2022-09-28T10:29:04;1.83;;;1.73;;
18251;SDS011;26917;52.328;20.878;2022-09-28T10:31:41;2.55;;;2.45;;
18251;SDS011;26917;52.328;20.878;2022-09-28T10:34:39;1.98;;;1.88;;
18251;SDS011;26917;52.328;20.878;2022-09-28T10:37:13;1.60;;;1.60;;
18251;SDS011;26917;52.328;20.878;2022-09-28T10:40:04;2.35;;;2.15;;
18251;SDS011;26917;52.328;20.878;2022-09-28T10:43:02;1.38;;;1.38;;
18251;SDS011;26917;52.328;20.878;2022-09-28T10:45:34;2.17;;;2.05;;
18251;SDS011;26917;52.328;20.878;2022-09-28T10:48:04;3.60;;;1.98;;
18251;SDS011;26917;52.328;20.878;2022-09-28T10:50:41;1.83;;;1.73;;
18251;SDS011;26917;52.328;20.878;2022-09-28T10:53:23;1.73;;;1.58;;
18251;SDS011;26917;52.328;20.878;2022-09-28T10:56:17;1.92;;;1.83;;
18251;SDS011;26917;52.328;20.878;2022-09-28T10:58:53;1.75;;;1.65;;
18251;SDS011;26917;52.328;20.878;2022-09-28T11:01:31;1.33;;;1.33;;
18251;SDS011;26917;52.328;20.878;2022-09-28T11:04:02;5.30;;;3.00;;
18251;SDS011;26917;52.328;20.878;2022-09-28T11:06:35;1.75;;;1.75;;
18251;SDS011;26917;52.328;20.878;2022-09-28T11:09:21;1.80;;;1.75;;
18251;SDS011;26917;52.328;20.878;2022-09-28T11:11:59;1.35;;;1.35;;
18251;SDS011;26917;52.328;20.878;2022-09-28T11:14:34;1.65;;;1.65;;
18251;SDS011;26917;52.328;20.878;2022-09-28T11:17:22;1.55;;;1.52;;
18251;SDS011;26917;52.328;20.878;2022-09-28T11:19:53;53.95;;;2.88;;
18251;SDS011;26917;52.328;20.878;2022-09-28T11:22:22;5.57;;;3.35;;
18251;SDS011;26917;52.328;20.878;2022-09-28T11:27:57;2.42;;;2.30;;
18251;SDS011;26917;52.328;20.878;2022-09-28T11:30:30;1.98;;;1.88;;
18251;SDS011;26917;52.328;20.878;2022-09-28T11:33:28;1.00;;;1.00;;
18251;SDS011;26917;52.328;20.878;2022-09-28T11:36:21;1.73;;;1.63;;
18251;SDS011;26917;52.328;20.878;2022-09-28T11:39:05;1.45;;;1.45;;
18251;SDS011;26917;52.328;20.878;2022-09-28T11:41:50;1.70;;;1.60;;
18251;SDS011;26917;52.328;20.878;2022-09-28T11:44:35;1.50;;;1.40;;
18251;SDS011;26917;52.328;20.878;2022-09-28T11:50:19;1.40;;;1.40;;
18251;SDS011;26917;52.328;20.878;2022-09-28T11:52:56;1.30;;;1.30;;
18251;SDS011;26917;52.328;20.878;2022-09-28T11:55:31;3.20;;;2.33;;
18251;SDS011;26917;52.328;20.878;2022-09-28T11:58:04;1.88;;;1.77;;
18251;SDS011;26917;52.328;20.878;2022-09-28T12:00:40;1.40;;;1.40;;
18251;SDS011;26917;52.328;20.878;2022-09-28T12:03:25;1.88;;;1.77;;
18251;SDS011;26917;52.328;20.878;2022-09-28T12:06:00;1.80;;;1.70;;
18251;SDS011;26917;52.328;20.878;2022-09-28T12:08:33;1.67;;;1.48;;
18251;SDS011;26917;52.328;20.878;2022-09-28T12:11:26;1.30;;;1.30;;
18251;SDS011;26917;52.328;20.878;2022-09-28T12:14:17;1.00;;;1.00;;
18251;SDS011;26917;52.328;20.878;2022-09-28T12:16:50;1.02;;;1.02;;
18251;SDS011;26917;52.328;20.878;2022-09-28T12:19:35;1.65;;;1.55;;
18251;SDS011;26917;52.328;20.878;2022-09-28T12:22:09;1.70;;;1.70;;
18251;SDS011;26917;52.328;20.878;2022-09-28T12:24:44;1.17;;;1.17;;
18251;SDS011;26917;52.328;20.878;2022-09-28T12:27:16;1.67;;;1.60;;
18251;SDS011;26917;52.328;20.878;2022-09-28T12:29:52;1.85;;;1.45;;
18251;SDS011;26917;52.328;20.878;2022-09-28T12:32:25;1.42;;;1.42;;
18251;SDS011;26917;52.328;20.878;2022-09-28T12:34:59;1.08;;;1.08;;
18251;SDS011;26917;52.328;20.878;2022-09-28T12:37:32;1.52;;;1.52;;
18251;SDS011;26917;52.328;20.878;2022-09-28T12:40:31;2.03;;;1.92;;
18251;SDS011;26917;52.328;20.878;2022-09-28T12:43:07;3.90;;;2.65;;
18251;SDS011;26917;52.328;20.878;2022-09-28T12:46:00;1.10;;;1.10;;
18251;SDS011;26917;52.328;20.878;2022-09-28T12:48:49;1.42;;;1.42;;
18251;SDS011;26917;52.328;20.878;2022-09-28T12:55:00;1.90;;;1.80;;
18251;SDS011;26917;52.328;20.878;2022-09-28T12:57:55;2.05;;;1.95;;
18251;SDS011;26917;52.328;20.878;2022-09-28T13:00:45;1.50;;;1.40;;
18251;SDS011;26917;52.328;20.878;2022-09-28T13:03:29;1.58;;;1.58;;
18251;SDS011;26917;52.328;20.878;2022-09-28T13:06:15;1.75;;;1.65;;
18251;SDS011;26917;52.328;20.878;2022-09-28T13:08:59;2.65;;;1.40;;
18251;SDS011;26917;52.328;20.878;2022-09-28T13:11:58;0.95;;;0.95;;
18251;SDS011;26917;52.328;20.878;2022-09-28T13:17:50;1.45;;;1.45;;
18251;SDS011;26917;52.328;20.878;2022-09-28T13:20:26;1.60;;;1.50;;
18251;SDS011;26917;52.328;20.878;2022-09-28T13:23:04;1.30;;;1.30;;
18251;SDS011;26917;52.328;20.878;2022-09-28T13:25:48;1.10;;;1.10;;
18251;SDS011;26917;52.328;20.878;2022-09-28T13:28:21;1.20;;;1.20;;
18251;SDS011;26917;52.328;20.878;2022-09-28T13:30:52;1.65;;;1.65;;
18251;SDS011;26917;52.328;20.878;2022-09-28T13:33:24;1.30;;;1.30;;
18251;SDS011;26917;52.328;20.878;2022-09-28T13:36:32;1.52;;;1.52;;
18251;SDS011;26917;52.328;20.878;2022-09-28T13:39:33;1.73;;;1.73;;
18251;SDS011;26917;52.328;20.878;2022-09-28T13:42:23;1.77;;;1.67;;
18251;SDS011;26917;52.328;20.878;2022-09-28T13:48:11;1.50;;;1.48;;
18251;SDS011;26917;52.328;20.878;2022-09-28T13:53:36;1.60;;;1.60;;
18251;SDS011;26917;52.328;20.878;2022-09-28T13:56:27;1.83;;;1.73;;
18251;SDS011;26917;52.328;20.878;2022-09-28T13:59:07;2.65;;;2.55;;
18251;SDS011;26917;52.328;20.878;2022-09-28T14:01:43;2.45;;;2.25;;
18251;SDS011;26917;52.328;20.878;2022-09-28T14:04:22;1.50;;;1.50;;
18251;SDS011;26917;52.328;20.878;2022-09-28T14:06:53;1.80;;;1.77;;
18251;SDS011;26917;52.328;20.878;2022-09-28T14:09:25;1.58;;;1.48;;
18251;SDS011;26917;52.328;20.878;2022-09-28T14:14:56;2.15;;;2.00;;
18251;SDS011;26917;52.328;20.878;2022-09-28T14:20:20;1.85;;;1.85;;
18251;SDS011;26917;52.328;20.878;2022-09-28T14:22:57;2.05;;;1.95;;
18251;SDS011;26917;52.328;20.878;2022-09-28T14:25:57;1.75;;;1.75;;
18251;SDS011;26917;52.328;20.878;2022-09-28T14:28:39;1.70;;;1.65;;
18251;SDS011;26917;52.328;20.878;2022-09-28T14:31:19;2.17;;;2.08;;
18251;SDS011;26917;52.328;20.878;2022-09-28T14:33:53;1.85;;;1.75;;
18251;SDS011;26917;52.328;20.878;2022-09-28T14:36:24;1.48;;;1.48;;
18251;SDS011;26917;52.328;20.878;2022-09-28T14:39:17;1.70;;;1.63;;
18251;SDS011;26917;52.328;20.878;2022-09-28T14:42:09;1.30;;;1.30;;
18251;SDS011;26917;52.328;20.878;2022-09-28T14:48:01;9.20;;;6.28;;
18251;SDS011;26917;52.328;20.878;2022-09-28T14:50:47;8.18;;;7.00;;
18251;SDS011;26917;52.328;20.878;2022-09-28T14:53:19;8.10;;;6.40;;
18251;SDS011;26917;52.328;20.878;2022-09-28T14:55:50;7.85;;;6.55;;
18251;SDS011;26917;52.328;20.878;2022-09-28T14:58:25;7.60;;;6.70;;
18251;SDS011;26917;52.328;20.878;2022-09-28T15:00:59;9.48;;;6.68;;
18251;SDS011;26917;52.328;20.878;2022-09-28T15:03:33;8.77;;;6.63;;
18251;SDS011;26917;52.328;20.878;2022-09-28T15:06:04;7.53;;;5.75;;
18251;SDS011;26917;52.328;20.878;2022-09-28T15:08:36;9.32;;;6.63;;
18251;SDS011;26917;52.328;20.878;2022-09-28T15:11:07;6.82;;;6.15;;
18251;SDS011;26917;52.328;20.878;2022-09-28T15:13:40;8.07;;;6.50;;
18251;SDS011;26917;52.328;20.878;2022-09-28T15:16:10;9.77;;;7.47;;
18251;SDS011;26917;52.328;20.878;2022-09-28T15:18:48;9.88;;;6.95;;
18251;SDS011;26917;52.328;20.878;2022-09-28T15:21:41;8.00;;;6.70;;
18251;SDS011;26917;52.328;20.878;2022-09-28T15:24:29;6.85;;;6.03;;
18251;SDS011;26917;52.328;20.878;2022-09-28T15:26:58;8.18;;;6.13;;
18251;SDS011;26917;52.328;20.878;2022-09-28T15:29:27;11.05;;;7.53;;
18251;SDS011;26917;52.328;20.878;2022-09-28T15:31:59;12.45;;;6.50;;
18251;SDS011;26917;52.328;20.878;2022-09-28T15:34:30;10.25;;;6.97;;
18251;SDS011;26917;52.328;20.878;2022-09-28T15:37:18;10.38;;;6.43;;
18251;SDS011;26917;52.328;20.878;2022-09-28T15:39:49;10.25;;;6.50;;
18251;SDS011;26917;52.328;20.878;2022-09-28T15:42:18;6.40;;;5.72;;
18251;SDS011;26917;52.328;20.878;2022-09-28T15:45:01;7.53;;;6.28;;
18251;SDS011;26917;52.328;20.878;2022-09-28T15:47:33;6.28;;;5.57;;
18251;SDS011;26917;52.328;20.878;2022-09-28T15:50:06;7.78;;;5.88;;
18251;SDS011;26917;52.328;20.878;2022-09-28T15:52:51;6.40;;;5.65;;
18251;SDS011;26917;52.328;20.878;2022-09-28T15:55:23;10.90;;;5.43;;
18251;SDS011;26917;52.328;20.878;2022-09-28T15:58:03;5.78;;;5.22;;
18251;SDS011;26917;52.328;20.878;2022-09-28T16:00:34;9.98;;;5.50;;
18251;SDS011;26917;52.328;20.878;2022-09-28T16:03:10;6.40;;;5.18;;
18251;SDS011;26917;52.328;20.878;2022-09-28T16:05:49;6.57;;;5.60;;
18251;SDS011;26917;52.328;20.878;2022-09-28T16:08:36;5.65;;;5.07;;
18251;SDS011;26917;52.328;20.878;2022-09-28T16:11:07;6.18;;;5.00;;
18251;SDS011;26917;52.328;20.878;2022-09-28T16:13:46;12.20;;;5.72;;
18251;SDS011;26917;52.328;20.878;2022-09-28T16:16:23;8.65;;;5.25;;
18251;SDS011;26917;52.328;20.878;2022-09-28T16:18:53;8.43;;;5.90;;
18251;SDS011;26917;52.328;20.878;2022-09-28T16:24:18;8.82;;;5.50;;
18251;SDS011;26917;52.328;20.878;2022-09-28T16:26:53;13.80;;;6.45;;
18251;SDS011;26917;52.328;20.878;2022-09-28T16:29:25;8.68;;;5.68;;
18251;SDS011;26917;52.328;20.878;2022-09-28T16:32:13;7.68;;;5.82;;
18251;SDS011;26917;52.328;20.878;2022-09-28T16:35:13;6.13;;;5.43;;
18251;SDS011;26917;52.328;20.878;2022-09-28T16:37:46;6.85;;;5.85;;
18251;SDS011;26917;52.328;20.878;2022-09-28T16:40:21;6.60;;;5.35;;
18251;SDS011;26917;52.328;20.878;2022-09-28T16:42:49;9.18;;;5.70;;
18251;SDS011;26917;52.328;20.878;2022-09-28T16:45:20;8.18;;;5.75;;
18251;SDS011;26917;52.328;20.878;2022-09-28T16:47:49;6.00;;;5.18;;
18251;SDS011;26917;52.328;20.878;2022-09-28T16:50:19;8.30;;;5.60;;
18251;SDS011;26917;52.328;20.878;2022-09-28T16:52:49;7.30;;;5.30;;
18251;SDS011;26917;52.328;20.878;2022-09-28T16:55:42;7.10;;;5.40;;
18251;SDS011;26917;52.328;20.878;2022-09-28T16:58:12;5.97;;;5.38;;
18251;SDS011;26917;52.328;20.878;2022-09-28T17:00:41;6.47;;;5.28;;
18251;SDS011;26917;52.328;20.878;2022-09-28T17:03:12;8.85;;;5.80;;
18251;SDS011;26917;52.328;20.878;2022-09-28T17:05:41;8.02;;;5.88;;
18251;SDS011;26917;52.328;20.878;2022-09-28T17:08:13;6.57;;;5.43;;
18251;SDS011;26917;52.328;20.878;2022-09-28T17:10:45;6.97;;;6.03;;
18251;SDS011;26917;52.328;20.878;2022-09-28T17:13:37;6.53;;;5.90;;
18251;SDS011;26917;52.328;20.878;2022-09-28T17:16:09;9.27;;;6.47;;
18251;SDS011;26917;52.328;20.878;2022-09-28T17:18:39;7.47;;;6.32;;
18251;SDS011;26917;52.328;20.878;2022-09-28T17:21:09;6.85;;;6.05;;
18251;SDS011;26917;52.328;20.878;2022-09-28T17:23:41;8.38;;;6.82;;
18251;SDS011;26917;52.328;20.878;2022-09-28T17:26:13;8.40;;;6.82;;
18251;SDS011;26917;52.328;20.878;2022-09-28T17:28:45;11.82;;;8.07;;
18251;SDS011;26917;52.328;20.878;2022-09-28T17:31:13;8.93;;;7.85;;
18251;SDS011;26917;52.328;20.878;2022-09-28T17:33:42;12.68;;;8.98;;
18251;SDS011;26917;52.328;20.878;2022-09-28T17:36:12;10.10;;;8.18;;
18251;SDS011;26917;52.328;20.878;2022-09-28T17:38:43;11.57;;;8.93;;
18251;SDS011;26917;52.328;20.878;2022-09-28T17:41:13;11.80;;;9.70;;
18251;SDS011;26917;52.328;20.878;2022-09-28T17:43:46;13.80;;;9.48;;
18251;SDS011;26917;52.328;20.878;2022-09-28T17:46:17;13.63;;;10.70;;
18251;SDS011;26917;52.328;20.878;2022-09-28T17:48:53;15.38;;;9.48;;
18251;SDS011;26917;52.328;20.878;2022-09-28T17:51:25;15.23;;;9.93;;
18251;SDS011;26917;52.328;20.878;2022-09-28T17:53:57;17.00;;;8.35;;
18251;SDS011;26917;52.328;20.878;2022-09-28T17:56:27;11.98;;;7.57;;
18251;SDS011;26917;52.328;20.878;2022-09-28T17:58:58;12.13;;;9.07;;
18251;SDS011;26917;52.328;20.878;2022-09-28T18:01:29;13.77;;;8.77;;
18251;SDS011;26917;52.328;20.878;2022-09-28T18:04:00;13.50;;;7.90;;
18251;SDS011;26917;52.328;20.878;2022-09-28T18:06:30;10.05;;;8.00;;
18251;SDS011;26917;52.328;20.878;2022-09-28T18:09:00;10.90;;;8.75;;
18251;SDS011;26917;52.328;20.878;2022-09-28T18:11:29;14.32;;;8.57;;
18251;SDS011;26917;52.328;20.878;2022-09-28T18:13:59;24.13;;;8.77;;
18251;SDS011;26917;52.328;20.878;2022-09-28T18:16:36;12.60;;;8.50;;
18251;SDS011;26917;52.328;20.878;2022-09-28T18:19:06;15.23;;;10.02;;
18251;SDS011;26917;52.328;20.878;2022-09-28T18:21:34;22.75;;;11.57;;
18251;SDS011;26917;52.328;20.878;2022-09-28T18:24:04;18.48;;;10.45;;
18251;SDS011;26917;52.328;20.878;2022-09-28T18:26:32;19.58;;;12.18;;
18251;SDS011;26917;52.328;20.878;2022-09-28T18:29:00;19.73;;;12.23;;
18251;SDS011;26917;52.328;20.878;2022-09-28T18:31:29;20.23;;;12.15;;
18251;SDS011;26917;52.328;20.878;2022-09-28T18:33:57;19.13;;;12.13;;
18251;SDS011;26917;52.328;20.878;2022-09-28T18:36:27;18.08;;;12.07;;